Terminal Aerodrome Forecast
Issued by NWS

Home | Current Version | Previous Version | Text Only | Print | Product List | Glossary On
Versions: 1 2 3 4 5 6 7 8 9 10 11 12 13 14 15 16 17
000
FTUS45 KGJT 232338
TAFMTJ
TAF
KMTJ 232338Z 2400/2424 13011KT P6SM FEW100 SCT200
     FM240300 15007KT P6SM FEW060 SCT090
     FM241800 25010G15KT P6SM FEW070 SCT130=

USA.gov is the U.S. government's official web portal to all federal, state and local government web resources and services.